Time;durP1;ratioP1;P1;durP2;ratioP2;P2;SDS_P1;SDS_P2;PMS_P1;PMS_P2;Temp;Humidity;BMP_temperature;BMP_pressure;BME280_temperature;BME280_humidity;BME280_pressure;Samples;Min_cycle;Max_cycle;Signal;HPM_P1;HPM_P2
2021/12/29 00:02:01;;;;;;;35.25;16.92;;;3.70;99.90;;;;;;5001088;28;20024;-78
2021/12/29 00:04:27;;;;;;;30.60;16.35;;;3.70;99.90;;;;;;5001580;28;20031;-77
2021/12/29 00:06:56;;;;;;;31.58;17.83;;;3.70;99.90;;;;;;5002575;28;20030;-77
2021/12/29 00:09:22;;;;;;;31.15;16.92;;;3.70;99.90;;;;;;5001866;28;20018;-76
2021/12/29 00:11:48;;;;;;;32.58;17.70;;;3.70;99.90;;;;;;5001981;28;20036;-76
2021/12/29 00:14:14;;;;;;;32.20;16.95;;;3.70;99.90;;;;;;5002115;28;20026;-76
2021/12/29 00:16:39;;;;;;;34.55;17.77;;;3.70;99.90;;;;;;5003240;28;20037;-78
2021/12/29 00:19:06;;;;;;;36.88;17.80;;;3.70;99.90;;;;;;5002114;28;20065;-77
2021/12/29 00:21:55;;;;;;;33.58;17.65;;;3.70;99.90;;;;;;5003083;28;20125;-75
2021/12/29 00:24:21;;;;;;;32.05;16.83;;;3.80;99.90;;;;;;5002378;28;20036;-76
2021/12/29 00:26:46;;;;;;;37.95;18.90;;;3.70;99.90;;;;;;5001736;28;20025;-76
2021/12/29 00:29:12;;;;;;;31.98;18.40;;;3.70;99.90;;;;;;5003043;28;20018;-76
2021/12/29 00:31:38;;;;;;;36.97;19.65;;;3.70;99.90;;;;;;5003432;28;20022;-77
2021/12/29 00:34:04;;;;;;;35.88;18.23;;;3.70;99.90;;;;;;5002518;28;20026;-76
2021/12/29 00:36:29;;;;;;;36.88;18.70;;;3.70;99.90;;;;;;5003374;28;20033;-77
2021/12/29 00:38:55;;;;;;;35.90;18.08;;;3.70;99.90;;;;;;5003383;28;20334;-77
2021/12/29 00:41:21;;;;;;;38.47;18.90;;;3.70;99.90;;;;;;5002401;28;20048;-78
2021/12/29 00:43:47;;;;;;;38.47;19.13;;;3.70;99.90;;;;;;5001044;28;20030;-77
2021/12/29 00:46:17;;;;;;;37.78;18.60;;;3.70;99.90;;;;;;5003405;28;20544;-77
2021/12/29 00:48:44;;;;;;;38.83;19.02;;;3.70;99.90;;;;;;5007054;28;20128;-76
2021/12/29 00:51:14;;;;;;;41.28;20.50;;;3.80;99.90;;;;;;5006521;28;20022;-78
2021/12/29 00:53:40;;;;;;;40.55;19.17;;;3.70;99.90;;;;;;5003968;28;20527;-77
2021/12/29 00:56:06;;;;;;;38.95;18.83;;;3.70;99.90;;;;;;5015056;28;20044;-77
2021/12/29 00:58:32;;;;;;;40.10;19.13;;;3.70;99.90;;;;;;5003247;28;20057;-78
2021/12/29 01:00:59;;;;;;;39.20;20.23;;;3.70;99.90;;;;;;5017775;28;20022;-77
2021/12/29 01:03:25;;;;;;;36.42;17.98;;;3.70;99.90;;;;;;5017623;28;20026;-77
2021/12/29 01:05:51;;;;;;;41.00;19.88;;;3.70;99.90;;;;;;5000975;28;20479;-76
2021/12/29 01:08:35;;;;;;;38.40;19.10;;;3.70;99.90;;;;;;5001568;28;20103;-75
2021/12/29 01:11:20;;;;;;;38.65;19.58;;;3.70;99.90;;;;;;5000847;28;20037;-75
2021/12/29 01:14:07;;;;;;;39.83;18.25;;;3.70;99.90;;;;;;5015749;28;20123;-77
2021/12/29 01:19:21;;;;;;;39.50;19.13;;;3.70;99.90;;;;;;5001802;28;20049;-77
2021/12/29 01:21:50;;;;;;;37.95;18.85;;;3.70;99.90;;;;;;5029269;28;20029;-77
2021/12/29 01:24:18;;;;;;;37.75;19.48;;;3.70;99.90;;;;;;5001582;28;20041;-77
2021/12/29 01:26:43;;;;;;;42.33;20.65;;;3.70;99.90;;;;;;5002010;28;21280;-77
2021/12/29 01:29:11;;;;;;;42.10;19.95;;;3.80;99.90;;;;;;5001590;28;20049;-78
2021/12/29 01:31:37;;;;;;;35.75;18.67;;;3.80;99.90;;;;;;5030206;28;20037;-76
2021/12/29 01:34:04;;;;;;;41.35;19.33;;;3.70;99.90;;;;;;5001742;28;20407;-76
2021/12/29 01:36:31;;;;;;;38.65;18.90;;;3.80;99.90;;;;;;5003020;28;20307;-78
2021/12/29 01:38:57;;;;;;;38.05;19.02;;;3.80;99.90;;;;;;5002361;28;20091;-76
2021/12/29 01:41:23;;;;;;;43.33;20.35;;;3.80;99.90;;;;;;4999627;28;20021;-76
2021/12/29 01:43:49;;;;;;;40.33;19.58;;;3.80;99.90;;;;;;5002334;28;20029;-77
2021/12/29 01:46:15;;;;;;;42.95;20.27;;;3.80;99.90;;;;;;4998642;28;20044;-77
2021/12/29 01:48:40;;;;;;;43.38;20.17;;;3.80;99.90;;;;;;5002180;28;20031;-77
2021/12/29 01:51:06;;;;;;;39.13;19.00;;;3.80;99.90;;;;;;5001483;28;20462;-77
2021/12/29 01:53:34;;;;;;;38.28;18.75;;;3.80;99.90;;;;;;4999806;28;20451;-74
2021/12/29 01:55:59;;;;;;;42.50;19.77;;;3.80;99.90;;;;;;5001435;28;20027;-77
2021/12/29 01:58:26;;;;;;;40.92;19.15;;;3.80;99.90;;;;;;5001672;28;20046;-76
2021/12/29 02:00:53;;;;;;;41.55;19.58;;;3.80;99.90;;;;;;5004663;28;20071;-77
2021/12/29 02:03:19;;;;;;;40.20;18.90;;;3.80;99.90;;;;;;5022265;28;20023;-77
2021/12/29 02:05:45;;;;;;;43.67;18.92;;;3.80;99.90;;;;;;5001339;28;20188;-78
2021/12/29 02:08:21;;;;;;;47.60;19.73;;;3.80;99.90;;;;;;5001983;28;20543;-77
2021/12/29 02:10:47;;;;;;;42.38;19.25;;;3.80;99.90;;;;;;5015996;28;20114;-74
2021/12/29 02:13:14;;;;;;;43.00;21.13;;;3.70;99.90;;;;;;5000624;28;20026;-73
2021/12/29 02:15:39;;;;;;;46.85;20.60;;;3.70;99.90;;;;;;5000765;28;20029;-74
2021/12/29 02:18:13;;;;;;;46.72;21.05;;;3.70;99.90;;;;;;5002594;28;20507;-75
2021/12/29 02:20:41;;;;;;;44.10;20.33;;;3.70;99.90;;;;;;5000241;28;20563;-74
2021/12/29 02:23:15;;;;;;;46.70;20.77;;;3.70;99.90;;;;;;5002066;28;20022;-74
2021/12/29 02:25:58;;;;;;;50.40;21.40;;;3.70;99.90;;;;;;5004376;28;20760;-75
2021/12/29 02:28:28;;;;;;;49.25;22.23;;;3.70;99.90;;;;;;5005868;28;20026;-75
2021/12/29 02:30:55;;;;;;;51.33;21.00;;;3.70;99.90;;;;;;5009093;28;20088;-75
2021/12/29 02:33:22;;;;;;;50.85;20.63;;;3.70;99.90;;;;;;5004858;28;20022;-75
2021/12/29 02:35:48;;;;;;;49.97;20.38;;;3.70;99.90;;;;;;5003284;28;20068;-74
2021/12/29 02:38:36;;;;;;;44.45;20.08;;;3.70;99.90;;;;;;5007881;28;20329;-75
2021/12/29 02:41:04;;;;;;;47.90;21.00;;;3.70;99.90;;;;;;5003634;28;20023;-75
2021/12/29 02:43:32;;;;;;;51.33;21.17;;;3.70;99.90;;;;;;5006100;28;20025;-75
2021/12/29 02:45:59;;;;;;;52.72;22.20;;;3.70;99.90;;;;;;5003790;28;20096;-75
2021/12/29 02:48:34;;;;;;;55.33;22.33;;;3.70;99.90;;;;;;5004914;28;20022;-75
2021/12/29 02:51:01;;;;;;;55.28;21.42;;;3.70;99.90;;;;;;5022203;28;20391;-75
2021/12/29 02:53:28;;;;;;;51.40;21.52;;;3.70;99.90;;;;;;5030503;28;20026;-75
2021/12/29 02:55:54;;;;;;;49.67;19.67;;;3.70;99.90;;;;;;5018622;28;20030;-75
2021/12/29 02:58:22;;;;;;;54.72;21.70;;;3.70;99.90;;;;;;5005514;28;20026;-75
2021/12/29 03:00:49;;;;;;;55.25;22.85;;;3.70;99.90;;;;;;5005745;28;20493;-75
2021/12/29 03:03:17;;;;;;;61.83;22.80;;;3.70;99.90;;;;;;5018777;28;20033;-76
2021/12/29 03:05:43;;;;;;;57.85;22.27;;;3.70;99.90;;;;;;5008314;28;20495;-74
2021/12/29 03:08:09;;;;;;;50.63;21.02;;;3.70;99.90;;;;;;5001804;28;20025;-75
2021/12/29 03:10:35;;;;;;;52.05;23.23;;;3.70;99.90;;;;;;5011801;28;20033;-76
2021/12/29 03:13:01;;;;;;;47.92;22.20;;;3.70;99.90;;;;;;5009034;28;20032;-75
2021/12/29 03:15:26;;;;;;;53.13;20.95;;;3.70;99.90;;;;;;5002950;28;20081;-75
2021/12/29 03:17:52;;;;;;;48.90;20.92;;;3.70;99.90;;;;;;5019761;28;20103;-75
2021/12/29 03:20:17;;;;;;;53.13;21.08;;;3.60;99.90;;;;;;5001689;28;20133;-74
2021/12/29 03:22:43;;;;;;;58.30;22.92;;;3.70;99.90;;;;;;5002931;28;20150;-75
2021/12/29 03:25:09;;;;;;;53.88;22.40;;;3.70;99.90;;;;;;5001619;28;20511;-74
2021/12/29 03:27:35;;;;;;;64.45;23.70;;;3.60;99.90;;;;;;5002000;28;20030;-75
2021/12/29 03:30:00;;;;;;;57.45;22.10;;;3.70;99.90;;;;;;5004058;28;20204;-76
2021/12/29 03:32:39;;;;;;;57.47;23.65;;;3.70;99.90;;;;;;5005418;28;20026;-75
2021/12/29 03:35:05;;;;;;;65.40;23.67;;;3.70;99.90;;;;;;4999398;28;20022;-75
2021/12/29 03:37:31;;;;;;;63.33;23.85;;;3.60;99.90;;;;;;5018121;28;20033;-75
2021/12/29 03:39:57;;;;;;;63.60;23.95;;;3.60;99.90;;;;;;5004201;28;20038;-75
2021/12/29 03:42:23;;;;;;;61.00;23.77;;;3.60;99.90;;;;;;5001517;28;20042;-75
2021/12/29 03:44:48;;;;;;;53.90;21.30;;;3.60;99.90;;;;;;5002184;28;20041;-75
2021/12/29 03:47:14;;;;;;;54.97;22.65;;;3.60;99.90;;;;;;5002523;28;20018;-75
2021/12/29 03:49:40;;;;;;;59.70;22.40;;;3.60;99.90;;;;;;5003630;28;20028;-74
2021/12/29 03:52:06;;;;;;;54.83;22.70;;;3.60;99.90;;;;;;5002692;28;20046;-75
2021/12/29 03:54:32;;;;;;;54.03;22.73;;;3.60;99.90;;;;;;5019156;28;20036;-75
2021/12/29 03:57:02;;;;;;;58.60;22.73;;;3.60;99.90;;;;;;5003792;28;20594;-74
2021/12/29 03:59:28;;;;;;;55.30;21.75;;;3.60;99.90;;;;;;5001870;28;20034;-75
2021/12/29 04:01:55;;;;;;;51.88;21.20;;;3.60;99.90;;;;;;4984720;28;20025;-75
2021/12/29 04:04:22;;;;;;;56.25;23.20;;;3.60;99.90;;;;;;5004106;28;20030;-75
2021/12/29 04:06:48;;;;;;;53.33;21.13;;;3.60;99.90;;;;;;5005617;28;20026;-74
2021/12/29 04:09:14;;;;;;;51.63;21.17;;;3.60;99.90;;;;;;5004892;28;20030;-75
2021/12/29 04:11:40;;;;;;;52.28;20.60;;;3.60;99.90;;;;;;5004343;28;20476;-75
2021/12/29 04:14:06;;;;;;;46.60;20.38;;;3.60;99.90;;;;;;5003762;28;20048;-75
2021/12/29 04:16:36;;;;;;;47.95;19.38;;;3.60;99.90;;;;;;5002803;28;20023;-78
2021/12/29 04:19:15;;;;;;;46.30;19.55;;;3.60;99.90;;;;;;5001973;28;20101;-75
2021/12/29 04:21:43;;;;;;;40.13;19.05;;;3.60;99.90;;;;;;5006883;28;20037;-75
2021/12/29 04:24:09;;;;;;;52.03;20.30;;;3.60;99.90;;;;;;5008159;28;20550;-79
2021/12/29 04:26:37;;;;;;;45.55;19.90;;;3.50;99.90;;;;;;5022848;28;20123;-75
2021/12/29 04:29:07;;;;;;;42.65;17.77;;;3.60;99.90;;;;;;4999918;28;20581;-75
2021/12/29 04:31:34;;;;;;;39.27;18.20;;;3.60;99.90;;;;;;5001247;28;20030;-75
2021/12/29 04:34:00;;;;;;;41.92;17.83;;;3.50;99.90;;;;;;5004468;28;20044;-75
2021/12/29 04:36:25;;;;;;;48.53;20.38;;;3.50;99.90;;;;;;5002154;28;20030;-75
2021/12/29 04:38:53;;;;;;;48.05;20.55;;;3.50;99.90;;;;;;5002437;28;20041;-75
2021/12/29 04:41:21;;;;;;;49.00;19.70;;;3.50;99.90;;;;;;5004914;28;20033;-75
2021/12/29 04:43:47;;;;;;;46.38;19.10;;;3.50;99.90;;;;;;5002440;28;20384;-77
2021/12/29 04:46:16;;;;;;;43.78;19.50;;;3.60;99.90;;;;;;4991123;28;20026;-74
2021/12/29 04:48:51;;;;;;;46.20;19.17;;;3.60;99.90;;;;;;5001642;28;20034;-74
2021/12/29 04:51:24;;;;;;;42.50;18.48;;;3.60;99.90;;;;;;5013241;28;20391;-76
2021/12/29 04:53:51;;;;;;;46.47;19.70;;;3.60;99.90;;;;;;5001938;28;20556;-76
2021/12/29 04:56:17;;;;;;;43.10;18.10;;;3.60;99.90;;;;;;5002718;28;20034;-74
2021/12/29 04:58:43;;;;;;;46.75;19.40;;;3.70;99.90;;;;;;5001605;28;20113;-74
2021/12/29 05:01:09;;;;;;;40.05;18.23;;;3.70;99.90;;;;;;5003781;28;20030;-74
2021/12/29 05:03:37;;;;;;;39.47;18.15;;;3.70;99.90;;;;;;4989423;28;20038;-75
2021/12/29 05:08:32;;;;;;;43.63;18.85;;;3.70;99.90;;;;;;5002556;28;20222;-75
2021/12/29 05:11:01;;;;;;;38.90;16.63;;;3.70;99.90;;;;;;5004744;28;20029;-75
2021/12/29 05:13:29;;;;;;;44.35;19.25;;;3.70;99.90;;;;;;5000253;28;20022;-74
2021/12/29 05:15:55;;;;;;;39.55;18.27;;;3.70;99.90;;;;;;5016146;28;20022;-75
2021/12/29 05:18:24;;;;;;;36.85;17.48;;;3.70;99.90;;;;;;5002632;28;20061;-75
2021/12/29 05:20:50;;;;;;;42.15;19.23;;;3.70;99.90;;;;;;5004398;28;20030;-77
2021/12/29 05:23:16;;;;;;;37.55;18.02;;;3.70;99.90;;;;;;5002473;28;20040;-76
2021/12/29 05:25:42;;;;;;;39.30;18.65;;;3.70;99.90;;;;;;5001952;28;20097;-75
2021/12/29 05:28:07;;;;;;;42.75;18.15;;;3.70;99.90;;;;;;5002231;28;20117;-76
2021/12/29 05:30:34;;;;;;;39.70;17.27;;;3.60;99.90;;;;;;5000791;28;20023;-74
2021/12/29 05:33:00;;;;;;;39.75;17.83;;;3.60;99.90;;;;;;5001397;28;20060;-74
2021/12/29 05:35:27;;;;;;;41.97;19.23;;;3.60;99.90;;;;;;5002015;28;20034;-75
2021/12/29 05:37:53;;;;;;;43.90;19.40;;;3.60;99.90;;;;;;5002914;28;20029;-75
2021/12/29 05:40:19;;;;;;;40.90;19.10;;;3.60;99.90;;;;;;5002487;28;20137;-79
2021/12/29 05:42:44;;;;;;;37.05;17.85;;;3.70;99.90;;;;;;5016456;28;20106;-75
2021/12/29 05:45:12;;;;;;;38.08;18.20;;;3.70;99.90;;;;;;5000596;28;20034;-77
2021/12/29 05:47:39;;;;;;;41.20;17.83;;;3.70;99.90;;;;;;5000612;28;20033;-74
2021/12/29 05:50:08;;;;;;;40.90;17.77;;;3.70;99.90;;;;;;5001207;28;20025;-77
2021/12/29 05:52:35;;;;;;;34.00;16.73;;;3.70;99.90;;;;;;5001823;28;20092;-74
2021/12/29 05:55:00;;;;;;;37.63;17.50;;;3.70;99.90;;;;;;5001347;28;20119;-75
2021/12/29 05:57:26;;;;;;;39.60;18.30;;;3.70;99.90;;;;;;5000760;28;20111;-77
2021/12/29 05:59:52;;;;;;;37.88;17.88;;;3.70;99.90;;;;;;5000092;28;20026;-77
2021/12/29 06:02:18;;;;;;;38.30;18.40;;;3.70;99.90;;;;;;5000043;28;20111;-74
2021/12/29 06:04:43;;;;;;;37.00;17.70;;;3.70;99.90;;;;;;5023627;28;20148;-76
2021/12/29 06:07:09;;;;;;;34.75;17.73;;;3.70;99.90;;;;;;5015011;28;20084;-74
2021/12/29 06:09:35;;;;;;;43.50;19.55;;;3.70;99.90;;;;;;4999392;28;20089;-74
2021/12/29 06:12:00;;;;;;;40.95;18.83;;;3.70;99.90;;;;;;5001823;28;20113;-75
2021/12/29 06:14:29;;;;;;;40.95;19.23;;;3.80;99.90;;;;;;4998729;28;20492;-75
2021/12/29 06:16:55;;;;;;;40.95;18.13;;;3.70;99.90;;;;;;5000399;28;20030;-75
2021/12/29 06:19:20;;;;;;;35.63;17.27;;;3.70;99.90;;;;;;5015864;28;20384;-73
2021/12/29 06:21:46;;;;;;;40.55;18.55;;;3.70;99.90;;;;;;5001444;28;20038;-75
2021/12/29 06:24:12;;;;;;;37.10;16.92;;;3.70;99.90;;;;;;4998319;28;20030;-76
2021/12/29 06:26:37;;;;;;;37.22;18.08;;;3.70;99.90;;;;;;5003852;28;20530;-74
2021/12/29 06:29:03;;;;;;;39.78;18.90;;;3.70;99.90;;;;;;4991349;28;20030;-74
2021/12/29 06:31:30;;;;;;;41.58;18.33;;;3.70;99.90;;;;;;4995294;28;20491;-75
2021/12/29 06:33:55;;;;;;;48.15;20.92;;;3.70;99.90;;;;;;4998666;28;20072;-75
2021/12/29 06:36:21;;;;;;;47.05;20.45;;;3.70;99.90;;;;;;5000940;28;20050;-75
2021/12/29 06:38:47;;;;;;;49.03;21.50;;;3.80;99.90;;;;;;5015561;28;20022;-75
2021/12/29 06:41:12;;;;;;;43.55;19.83;;;3.70;99.90;;;;;;5005892;28;20034;-76
2021/12/29 06:43:38;;;;;;;44.38;19.33;;;3.70;99.90;;;;;;5002082;28;20034;-75
2021/12/29 06:46:04;;;;;;;47.17;19.65;;;3.70;99.90;;;;;;5000001;28;20480;-75
2021/12/29 06:48:29;;;;;;;41.42;19.42;;;3.70;99.90;;;;;;5000465;28;20088;-75
2021/12/29 06:50:55;;;;;;;40.33;19.23;;;3.70;99.90;;;;;;4999993;28;20026;-76
2021/12/29 06:53:21;;;;;;;49.60;20.30;;;3.70;99.90;;;;;;4999725;28;20415;-77
2021/12/29 06:55:46;;;;;;;42.72;20.50;;;3.70;99.90;;;;;;5013875;28;20037;-75
2021/12/29 06:58:12;;;;;;;43.47;21.00;;;3.70;99.90;;;;;;4999394;28;20029;-75
2021/12/29 07:00:39;;;;;;;44.70;20.40;;;3.70;99.90;;;;;;5001292;28;20029;-74
2021/12/29 07:03:05;;;;;;;42.63;19.80;;;3.70;99.90;;;;;;4997254;28;20037;-73
2021/12/29 07:05:31;;;;;;;43.63;19.67;;;3.70;99.90;;;;;;4999873;28;20098;-74
2021/12/29 07:07:59;;;;;;;47.97;20.67;;;3.70;99.90;;;;;;5000093;28;20080;-75
2021/12/29 07:10:25;;;;;;;51.15;22.23;;;3.70;99.90;;;;;;5001822;28;20034;-74
2021/12/29 07:12:50;;;;;;;49.60;22.45;;;3.70;99.90;;;;;;5003912;28;20079;-74
2021/12/29 07:15:17;;;;;;;46.70;19.85;;;3.70;99.90;;;;;;5003294;28;20033;-74
2021/12/29 07:17:43;;;;;;;48.80;21.80;;;3.60;99.90;;;;;;5002041;28;20400;-74
2021/12/29 07:20:09;;;;;;;47.08;20.13;;;3.70;99.90;;;;;;5003782;28;20025;-74
2021/12/29 07:22:35;;;;;;;47.03;21.35;;;3.60;99.90;;;;;;5001678;28;20531;-74
2021/12/29 07:25:01;;;;;;;46.05;20.48;;;3.60;99.90;;;;;;5001060;28;20089;-75
2021/12/29 07:27:26;;;;;;;49.30;22.58;;;3.60;99.90;;;;;;5001684;28;20049;-75
2021/12/29 07:29:52;;;;;;;53.78;21.17;;;3.60;99.90;;;;;;5001872;28;20034;-75
2021/12/29 07:32:18;;;;;;;58.03;24.88;;;3.60;99.90;;;;;;5000935;28;20108;-77
2021/12/29 07:34:44;;;;;;;55.42;23.05;;;3.60;99.90;;;;;;5001582;28;20079;-75
2021/12/29 07:37:12;;;;;;;55.90;24.30;;;3.60;99.90;;;;;;5001922;28;20023;-75
2021/12/29 07:39:38;;;;;;;53.22;23.17;;;3.60;99.90;;;;;;5002589;28;20034;-74
2021/12/29 07:42:04;;;;;;;53.72;23.15;;;3.60;99.90;;;;;;5019854;28;20028;-74
2021/12/29 07:44:30;;;;;;;55.78;23.05;;;3.60;99.90;;;;;;5003382;28;20148;-75
2021/12/29 07:46:58;;;;;;;51.70;21.88;;;3.60;99.90;;;;;;4988981;28;20610;-74
2021/12/29 07:49:25;;;;;;;62.28;23.98;;;3.60;99.90;;;;;;5003010;28;20458;-75
2021/12/29 07:51:51;;;;;;;57.13;23.67;;;3.60;99.90;;;;;;5003472;28;20026;-75
2021/12/29 07:54:17;;;;;;;67.05;26.95;;;3.60;99.90;;;;;;5000054;28;20038;-74
2021/12/29 07:56:44;;;;;;;55.83;23.73;;;3.60;99.90;;;;;;5000225;28;20645;-74
2021/12/29 07:59:11;;;;;;;62.78;24.17;;;3.50;99.90;;;;;;5004559;28;20036;-75
2021/12/29 08:01:38;;;;;;;67.00;25.05;;;3.50;99.90;;;;;;5003301;28;20511;-74
2021/12/29 08:04:03;;;;;;;57.78;22.90;;;3.50;99.90;;;;;;5016627;28;20038;-75
2021/12/29 08:06:29;;;;;;;55.35;24.45;;;3.50;99.90;;;;;;5002184;28;20534;-78
2021/12/29 08:08:55;;;;;;;73.80;26.88;;;3.50;99.90;;;;;;5003791;28;20025;-75
2021/12/29 08:11:21;;;;;;;65.20;25.88;;;3.70;99.90;;;;;;5002242;28;20026;-76
2021/12/29 08:13:47;;;;;;;66.78;26.75;;;4.00;99.90;;;;;;5001141;28;20050;-76
2021/12/29 08:16:13;;;;;;;59.83;24.08;;;4.30;99.90;;;;;;5000463;28;20129;-76
2021/12/29 08:18:39;;;;;;;59.47;25.30;;;4.30;99.90;;;;;;5001224;28;20476;-76
2021/12/29 08:21:05;;;;;;;58.10;23.88;;;4.30;99.90;;;;;;5001727;28;20030;-76
2021/12/29 08:23:31;;;;;;;59.03;25.30;;;4.30;99.90;;;;;;5016396;28;20029;-76
2021/12/29 08:25:58;;;;;;;52.17;22.42;;;4.20;99.90;;;;;;5002519;28;20029;-76
2021/12/29 08:28:24;;;;;;;56.25;22.38;;;4.10;99.90;;;;;;5001266;28;20030;-76
2021/12/29 08:30:51;;;;;;;57.63;24.83;;;4.00;99.90;;;;;;5007563;28;20395;-77
2021/12/29 08:33:17;;;;;;;49.08;22.58;;;4.00;99.90;;;;;;5009596;28;20160;-76
2021/12/29 08:35:42;;;;;;;57.45;23.42;;;4.00;99.90;;;;;;5009183;28;20330;-77
2021/12/29 08:38:08;;;;;;;56.47;23.77;;;3.90;99.90;;;;;;5009425;28;20034;-76
2021/12/29 08:40:34;;;;;;;57.22;23.15;;;3.90;99.90;;;;;;5005992;28;20080;-78
2021/12/29 08:43:02;;;;;;;59.58;23.95;;;3.90;99.90;;;;;;5006358;28;20411;-76
2021/12/29 08:45:28;;;;;;;51.63;22.23;;;3.90;99.90;;;;;;5006880;28;20601;-77
2021/12/29 08:47:57;;;;;;;63.55;25.13;;;3.90;99.90;;;;;;5001734;28;20065;-76
2021/12/29 08:50:25;;;;;;;59.30;25.33;;;3.90;99.90;;;;;;5007137;28;20034;-77
2021/12/29 08:52:52;;;;;;;61.40;26.15;;;3.90;99.90;;;;;;5005388;28;20492;-77
2021/12/29 08:55:21;;;;;;;60.58;25.65;;;3.90;99.90;;;;;;5008962;28;20125;-77
2021/12/29 08:57:47;;;;;;;57.88;23.60;;;3.80;99.90;;;;;;5030826;28;20029;-77
2021/12/29 09:00:16;;;;;;;63.72;25.63;;;3.90;99.90;;;;;;5003014;28;20041;-78
2021/12/29 09:02:43;;;;;;;59.30;23.85;;;3.90;99.90;;;;;;5008945;28;20193;-77
2021/12/29 09:05:10;;;;;;;58.05;23.95;;;3.90;99.90;;;;;;5008421;28;20053;-78
2021/12/29 09:07:36;;;;;;;53.47;22.60;;;3.90;99.90;;;;;;5011737;28;20156;-79
2021/12/29 09:10:05;;;;;;;51.53;22.02;;;3.90;99.90;;;;;;5005976;28;20030;-78
2021/12/29 09:12:31;;;;;;;59.03;25.08;;;3.90;99.90;;;;;;5009335;28;20030;-76
2021/12/29 09:14:57;;;;;;;66.82;25.02;;;3.90;99.90;;;;;;5008541;28;20022;-77
2021/12/29 09:17:23;;;;;;;65.55;25.27;;;3.80;99.90;;;;;;5012889;28;20073;-76
2021/12/29 09:19:48;;;;;;;58.63;24.00;;;3.80;99.90;;;;;;5014929;28;20598;-77
2021/12/29 09:22:14;;;;;;;62.58;24.10;;;3.80;99.90;;;;;;5005860;28;20026;-77
2021/12/29 09:24:42;;;;;;;68.07;26.08;;;3.80;99.90;;;;;;5000153;28;20069;-76
2021/12/29 09:27:08;;;;;;;64.57;24.65;;;3.80;99.90;;;;;;5016450;28;20048;-76
2021/12/29 09:29:34;;;;;;;57.67;22.75;;;3.80;99.90;;;;;;5021506;28;20024;-76
2021/12/29 09:32:04;;;;;;;62.58;24.15;;;3.90;99.90;;;;;;5015945;28;20118;-77
2021/12/29 09:34:32;;;;;;;52.72;22.25;;;3.90;99.90;;;;;;5006771;28;20650;-71
2021/12/29 09:36:58;;;;;;;61.42;23.48;;;3.90;99.90;;;;;;4999082;28;20081;-74
2021/12/29 09:39:24;;;;;;;65.88;25.52;;;3.90;99.90;;;;;;5002065;28;20033;-74
2021/12/29 09:41:51;;;;;;;63.63;24.77;;;3.90;99.90;;;;;;5002338;28;20037;-73
2021/12/29 09:44:17;;;;;;;60.70;24.20;;;3.90;99.90;;;;;;5001958;28;20036;-74
2021/12/29 09:47:05;;;;;;;58.47;24.45;;;3.90;99.90;;;;;;5005077;28;20053;-76
2021/12/29 09:49:33;;;;;;;62.25;23.70;;;3.90;99.90;;;;;;4964204;28;20035;-75
2021/12/29 09:51:59;;;;;;;67.28;25.98;;;3.80;99.90;;;;;;4945504;28;20067;-74
2021/12/29 09:54:24;;;;;;;67.93;24.40;;;3.80;99.90;;;;;;4956189;28;20065;-76
2021/12/29 09:56:50;;;;;;;61.60;24.17;;;3.80;99.90;;;;;;4963141;28;20070;-75
2021/12/29 09:59:18;;;;;;;68.97;25.10;;;3.80;99.90;;;;;;4947607;28;20423;-75
2021/12/29 10:01:44;;;;;;;64.15;25.90;;;3.80;99.90;;;;;;4962203;28;20478;-76
2021/12/29 10:04:10;;;;;;;62.53;24.13;;;4.00;99.90;;;;;;4947334;28;20159;-74
2021/12/29 10:06:37;;;;;;;62.00;25.30;;;4.10;99.90;;;;;;4950317;28;20133;-73
2021/12/29 10:09:15;;;;;;;65.88;24.25;;;4.10;99.90;;;;;;4943839;28;20027;-75
2021/12/29 10:11:41;;;;;;;64.32;22.75;;;4.00;99.90;;;;;;4964750;28;20039;-73
2021/12/29 10:14:10;;;;;;;62.65;23.52;;;4.00;99.90;;;;;;4961002;28;20053;-74
2021/12/29 10:16:36;;;;;;;59.60;22.60;;;4.00;99.90;;;;;;4962981;28;20050;-74
2021/12/29 10:19:12;;;;;;;53.35;21.65;;;3.90;99.90;;;;;;4960953;28;20119;-72
2021/12/29 10:21:46;;;;;;;58.28;23.92;;;4.00;99.90;;;;;;4960463;28;20046;-73
2021/12/29 10:24:13;;;;;;;56.95;23.75;;;4.00;99.90;;;;;;4945199;28;20135;-74
2021/12/29 10:26:43;;;;;;;62.10;23.45;;;4.00;99.90;;;;;;4995753;28;20496;-75
2021/12/29 10:29:13;;;;;;;51.70;21.67;;;4.00;99.90;;;;;;5002440;28;20494;-76
2021/12/29 10:31:42;;;;;;;58.90;21.60;;;4.00;99.90;;;;;;5001210;28;20076;-74
2021/12/29 10:34:11;;;;;;;55.92;22.02;;;4.00;99.90;;;;;;4999910;28;20030;-76
2021/12/29 10:36:45;;;;;;;57.97;23.98;;;4.00;99.90;;;;;;5001384;28;20459;-76
2021/12/29 10:39:25;;;;;;;57.13;21.35;;;4.00;99.90;;;;;;5002610;28;20022;-74
2021/12/29 10:42:13;;;;;;;62.58;23.35;;;4.10;99.90;;;;;;5004072;28;20049;-74
2021/12/29 10:44:48;;;;;;;63.60;24.92;;;4.10;99.90;;;;;;5003407;28;20084;-75
2021/12/29 10:47:19;;;;;;;61.05;24.00;;;4.10;99.90;;;;;;5007689;28;20026;-76
2021/12/29 10:49:53;;;;;;;59.38;23.67;;;4.10;99.90;;;;;;5006431;28;20026;-73
2021/12/29 10:52:39;;;;;;;66.50;26.30;;;4.10;99.90;;;;;;4988799;28;20042;-76
2021/12/29 10:55:07;;;;;;;64.05;25.65;;;4.20;99.90;;;;;;5004253;28;20030;-75
2021/12/29 10:57:34;;;;;;;62.53;25.85;;;4.20;99.90;;;;;;5009949;28;20037;-74
2021/12/29 11:00:02;;;;;;;63.90;24.70;;;4.10;99.90;;;;;;5006049;28;20061;-74
2021/12/29 11:02:33;;;;;;;59.03;24.70;;;4.20;99.90;;;;;;5019507;28;20034;-74
2021/12/29 11:05:10;;;;;;;65.53;25.67;;;4.20;99.90;;;;;;5003146;28;20029;-75
2021/12/29 11:07:38;;;;;;;70.82;28.25;;;4.20;99.90;;;;;;5004266;28;20033;-74
2021/12/29 11:10:12;;;;;;;65.68;25.13;;;4.20;99.90;;;;;;5005953;28;20031;-75
2021/12/29 11:12:55;;;;;;;66.57;25.10;;;4.30;99.90;;;;;;5002609;28;20038;-76
2021/12/29 11:15:26;;;;;;;61.20;23.85;;;4.30;99.90;;;;;;5017806;28;20036;-76
2021/12/29 11:17:53;;;;;;;;;;;4.40;99.90;;;;;;5020220;28;20056;-75
2021/12/29 11:20:22;;;;;;;60.00;23.25;;;4.40;99.90;;;;;;5003313;28;19948;-76
2021/12/29 11:22:49;;;;;;;60.42;25.40;;;4.40;99.90;;;;;;5006731;28;20030;-75
2021/12/29 11:25:25;;;;;;;57.40;24.75;;;4.40;99.90;;;;;;5007224;28;20030;-76
2021/12/29 11:27:53;;;;;;;60.85;25.75;;;4.40;99.90;;;;;;5034461;28;20065;-75
2021/12/29 11:30:20;;;;;;;57.22;24.05;;;4.40;99.90;;;;;;5002152;28;20054;-76
2021/12/29 11:32:47;;;;;;;55.13;23.58;;;4.40;99.90;;;;;;5005199;28;20026;-76
2021/12/29 11:35:17;;;;;;;56.72;23.02;;;4.40;99.90;;;;;;5003849;28;20033;-76
2021/12/29 11:37:49;;;;;;;60.13;23.40;;;4.40;99.90;;;;;;5009688;28;20036;-75
2021/12/29 11:40:22;;;;;;;58.88;24.60;;;4.40;99.90;;;;;;5019760;28;20036;-77
2021/12/29 11:42:48;;;;;;;61.83;25.45;;;4.40;99.90;;;;;;5009448;28;20677;-79
2021/12/29 11:45:17;;;;;;;69.68;27.50;;;4.50;99.90;;;;;;5011213;28;20066;-76
2021/12/29 11:47:43;;;;;;;58.83;25.67;;;5.00;99.90;;;;;;5007242;28;20122;-73
2021/12/29 11:50:12;;;;;;;63.42;27.33;;;5.00;99.90;;;;;;5024271;28;20026;-75
2021/12/29 11:52:53;;;;;;;55.47;24.38;;;4.90;99.90;;;;;;5004789;28;20038;-76
2021/12/29 11:55:29;;;;;;;59.80;24.15;;;4.90;99.90;;;;;;5005045;28;20030;-75
2021/12/29 11:57:55;;;;;;;62.80;25.75;;;4.80;99.90;;;;;;5010681;28;20034;-76
2021/12/29 12:00:23;;;;;;;61.47;25.25;;;4.70;99.90;;;;;;5005198;28;20447;-75
2021/12/29 12:02:52;;;;;;;58.63;25.35;;;4.70;99.90;;;;;;5004783;28;20072;-75
2021/12/29 12:05:32;;;;;;;58.25;23.80;;;4.70;99.90;;;;;;5020719;28;20081;-75
2021/12/29 12:08:13;;;;;;;58.92;26.10;;;4.60;99.90;;;;;;5004018;28;20018;-75
2021/12/29 12:10:40;;;;;;;58.83;23.70;;;4.70;99.90;;;;;;5004755;28;20030;-77
2021/12/29 12:13:27;;;;;;;66.07;27.00;;;4.70;99.90;;;;;;5003988;28;20062;-76
2021/12/29 12:16:13;;;;;;;66.13;27.05;;;4.70;99.90;;;;;;5016181;28;20145;-76
2021/12/29 12:18:53;;;;;;;72.03;26.38;;;4.70;99.90;;;;;;5004259;28;20587;-76
2021/12/29 12:21:33;;;;;;;67.55;27.38;;;4.60;99.90;;;;;;5002855;28;20661;-76
2021/12/29 12:24:25;;;;;;;71.57;28.58;;;4.60;99.90;;;;;;5003564;28;20034;-73
2021/12/29 12:26:52;;;;;;;71.72;27.42;;;4.60;99.90;;;;;;5005301;28;20118;-75
2021/12/29 12:29:20;;;;;;;75.50;29.10;;;4.50;99.90;;;;;;5006389;28;20026;-75
2021/12/29 12:32:13;;;;;;;73.72;29.60;;;4.50;99.90;;;;;;5006466;28;20086;-75
2021/12/29 12:34:58;;;;;;;70.78;28.65;;;4.50;99.90;;;;;;5007111;28;20034;-75
2021/12/29 12:37:45;;;;;;;71.85;28.38;;;4.50;99.90;;;;;;5005676;28;20451;-76
2021/12/29 12:40:23;;;;;;;69.57;28.30;;;4.50;99.90;;;;;;5002541;28;20025;-75
2021/12/29 12:43:16;;;;;;;68.85;26.30;;;4.50;99.90;;;;;;5004241;28;20053;-76
2021/12/29 12:45:47;;;;;;;70.22;26.50;;;4.60;99.90;;;;;;4999418;28;20052;-77
2021/12/29 12:48:18;;;;;;;65.75;25.92;;;4.60;99.90;;;;;;5004316;28;20376;-77
2021/12/29 12:50:44;;;;;;;;;;;4.60;99.90;;;;;;5006302;28;20121;-76